sensor_id;sensor_type;location;lat;lon;timestamp;pressure;altitude;pressure_sealevel;temperature;humidity
63700;BME280;49845;47.130;142.766;2023-09-08T00:02:08;100661.41;;;20.25;82.04
63700;BME280;49845;47.130;142.766;2023-09-08T00:04:38;100655.09;;;20.28;80.43
63700;BME280;49845;47.130;142.766;2023-09-08T00:07:11;100660.38;;;20.28;80.45
63700;BME280;49845;47.130;142.766;2023-09-08T00:10:07;100651.31;;;20.32;80.18
63700;BME280;49845;47.130;142.766;2023-09-08T00:12:43;100648.31;;;20.39;79.47
63700;BME280;49845;47.130;142.766;2023-09-08T00:15:16;100649.78;;;20.45;78.26
63700;BME280;49845;47.130;142.766;2023-09-08T00:17:47;100652.88;;;20.53;78.68
63700;BME280;49845;47.130;142.766;2023-09-08T00:20:19;100649.63;;;20.65;78.47
63700;BME280;49845;47.130;142.766;2023-09-08T00:22:55;100644.53;;;20.78;78.29
63700;BME280;49845;47.130;142.766;2023-09-08T00:25:28;100643.47;;;20.98;78.02
63700;BME280;49845;47.130;142.766;2023-09-08T00:28:03;100617.66;;;20.84;76.25
63700;BME280;49845;47.130;142.766;2023-09-08T00:30:35;100635.31;;;21.01;74.32
63700;BME280;49845;47.130;142.766;2023-09-08T00:33:07;100629.09;;;21.02;74.24
63700;BME280;49845;47.130;142.766;2023-09-08T00:35:38;100626.25;;;21.05;73.76
63700;BME280;49845;47.130;142.766;2023-09-08T00:38:10;100613.75;;;21.07;74.50
63700;BME280;49845;47.130;142.766;2023-09-08T00:40:43;100608.09;;;21.14;74.55
63700;BME280;49845;47.130;142.766;2023-09-08T00:43:17;100600.97;;;21.14;73.87
63700;BME280;49845;47.130;142.766;2023-09-08T00:45:49;100602.47;;;21.20;74.32
63700;BME280;49845;47.130;142.766;2023-09-08T00:48:23;100606.56;;;21.25;74.01
63700;BME280;49845;47.130;142.766;2023-09-08T00:50:57;100601.94;;;21.29;73.75
63700;BME280;49845;47.130;142.766;2023-09-08T00:53:31;100605.03;;;21.37;73.62
63700;BME280;49845;47.130;142.766;2023-09-08T00:56:03;100606.25;;;21.47;74.07
63700;BME280;49845;47.130;142.766;2023-09-08T00:58:39;100599.81;;;21.51;73.60
63700;BME280;49845;47.130;142.766;2023-09-08T01:01:12;100593.38;;;21.56;72.97
63700;BME280;49845;47.130;142.766;2023-09-08T01:03:47;100584.31;;;21.60;73.18
63700;BME280;49845;47.130;142.766;2023-09-08T01:06:21;100576.53;;;21.71;74.12
63700;BME280;49845;47.130;142.766;2023-09-08T01:08:53;100585.47;;;21.70;73.05
63700;BME280;49845;47.130;142.766;2023-09-08T01:11:28;100574.47;;;21.76;73.15
63700;BME280;49845;47.130;142.766;2023-09-08T01:14:02;100579.94;;;21.89;72.52
63700;BME280;49845;47.130;142.766;2023-09-08T01:16:33;100582.13;;;21.96;72.09
63700;BME280;49845;47.130;142.766;2023-09-08T01:19:10;100570.38;;;22.01;71.04
63700;BME280;49845;47.130;142.766;2023-09-08T01:25:12;100567.19;;;22.10;70.67
63700;BME280;49845;47.130;142.766;2023-09-08T01:27:50;100561.88;;;22.10;71.59
63700;BME280;49845;47.130;142.766;2023-09-08T01:30:24;100532.47;;;22.11;71.81
63700;BME280;49845;47.130;142.766;2023-09-08T01:32:58;100542.63;;;22.21;71.17
63700;BME280;49845;47.130;142.766;2023-09-08T01:35:31;100534.16;;;22.28;70.98
63700;BME280;49845;47.130;142.766;2023-09-08T01:38:04;100535.69;;;22.32;70.01
63700;BME280;49845;47.130;142.766;2023-09-08T01:40:38;100527.88;;;22.44;71.00
63700;BME280;49845;47.130;142.766;2023-09-08T01:43:14;100534.47;;;22.38;69.05
63700;BME280;49845;47.130;142.766;2023-09-08T01:45:46;100521.84;;;22.42;69.12
63700;BME280;49845;47.130;142.766;2023-09-08T01:48:20;100513.06;;;22.54;69.66
63700;BME280;49845;47.130;142.766;2023-09-08T01:50:54;100522.09;;;22.66;69.87
63700;BME280;49845;47.130;142.766;2023-09-08T01:53:27;100520.47;;;22.77;70.32
63700;BME280;49845;47.130;142.766;2023-09-08T01:56:03;100502.19;;;22.86;68.81
63700;BME280;49845;47.130;142.766;2023-09-08T01:58:35;100496.00;;;22.85;68.60
63700;BME280;49845;47.130;142.766;2023-09-08T02:01:08;100501.59;;;22.95;68.35
63700;BME280;49845;47.130;142.766;2023-09-08T02:03:41;100496.28;;;22.95;67.72
63700;BME280;49845;47.130;142.766;2023-09-08T02:06:13;100496.47;;;22.92;66.93
63700;BME280;49845;47.130;142.766;2023-09-08T02:08:45;100494.75;;;22.91;66.81
63700;BME280;49845;47.130;142.766;2023-09-08T02:11:19;100492.84;;;22.93;66.69
63700;BME280;49845;47.130;142.766;2023-09-08T02:13:55;100495.16;;;22.99;66.46
63700;BME280;49845;47.130;142.766;2023-09-08T02:16:27;100490.78;;;22.98;65.26
63700;BME280;49845;47.130;142.766;2023-09-08T02:19:00;100486.13;;;23.01;66.34
63700;BME280;49845;47.130;142.766;2023-09-08T02:21:33;100479.31;;;23.10;67.09
63700;BME280;49845;47.130;142.766;2023-09-08T02:24:06;100470.44;;;23.24;66.87
63700;BME280;49845;47.130;142.766;2023-09-08T02:26:42;100473.13;;;23.37;66.53
63700;BME280;49845;47.130;142.766;2023-09-08T02:29:14;100459.59;;;23.40;67.29
63700;BME280;49845;47.130;142.766;2023-09-08T02:31:46;100459.59;;;23.40;67.63
63700;BME280;49845;47.130;142.766;2023-09-08T02:34:19;100456.63;;;23.44;68.00
63700;BME280;49845;47.130;142.766;2023-09-08T02:36:51;100460.22;;;23.43;66.31
63700;BME280;49845;47.130;142.766;2023-09-08T02:39:23;100451.91;;;23.48;67.60
63700;BME280;49845;47.130;142.766;2023-09-08T02:41:59;100445.97;;;23.57;66.80
63700;BME280;49845;47.130;142.766;2023-09-08T02:44:34;100425.91;;;23.39;66.66
63700;BME280;49845;47.130;142.766;2023-09-08T02:47:06;100445.22;;;23.55;65.45
63700;BME280;49845;47.130;142.766;2023-09-08T02:49:40;100437.97;;;23.57;66.10
63700;BME280;49845;47.130;142.766;2023-09-08T02:52:13;100435.53;;;23.67;66.92
63700;BME280;49845;47.130;142.766;2023-09-08T02:54:46;100438.09;;;23.68;67.00
63700;BME280;49845;47.130;142.766;2023-09-08T02:57:24;100431.69;;;23.71;66.38
63700;BME280;49845;47.130;142.766;2023-09-08T02:59:58;100434.28;;;23.73;67.54
63700;BME280;49845;47.130;142.766;2023-09-08T03:02:31;100422.06;;;23.68;67.00
63700;BME280;49845;47.130;142.766;2023-09-08T03:05:06;100435.09;;;23.60;66.97
63700;BME280;49845;47.130;142.766;2023-09-08T03:07:38;100427.72;;;23.51;66.76
63700;BME280;49845;47.130;142.766;2023-09-08T03:10:18;100414.59;;;23.48;66.98
63700;BME280;49845;47.130;142.766;2023-09-08T03:12:54;100422.91;;;23.56;67.96
63700;BME280;49845;47.130;142.766;2023-09-08T03:15:28;100426.16;;;23.61;66.88
63700;BME280;49845;47.130;142.766;2023-09-08T03:18:01;100413.13;;;23.57;65.51
63700;BME280;49845;47.130;142.766;2023-09-08T03:20:36;100419.53;;;23.54;66.50
63700;BME280;49845;47.130;142.766;2023-09-08T03:23:10;100422.72;;;23.59;67.07
63700;BME280;49845;47.130;142.766;2023-09-08T03:25:43;100406.91;;;23.56;66.76
63700;BME280;49845;47.130;142.766;2023-09-08T03:28:20;100406.72;;;23.59;67.06
63700;BME280;49845;47.130;142.766;2023-09-08T03:30:55;100399.47;;;23.61;66.74
63700;BME280;49845;47.130;142.766;2023-09-08T03:33:31;100397.75;;;23.60;65.77
63700;BME280;49845;47.130;142.766;2023-09-08T03:36:07;100382.91;;;23.56;65.45
63700;BME280;49845;47.130;142.766;2023-09-08T03:38:45;100371.50;;;23.54;64.55
63700;BME280;49845;47.130;142.766;2023-09-08T03:41:18;100377.16;;;23.62;64.76
63700;BME280;49845;47.130;142.766;2023-09-08T03:43:54;100377.69;;;23.67;64.20
63700;BME280;49845;47.130;142.766;2023-09-08T03:46:29;100373.88;;;23.72;64.71
63700;BME280;49845;47.130;142.766;2023-09-08T03:49:03;100363.38;;;23.68;62.90
63700;BME280;49845;47.130;142.766;2023-09-08T03:51:38;100360.00;;;23.66;63.53
63700;BME280;49845;47.130;142.766;2023-09-08T03:54:13;100368.13;;;23.78;63.68
63700;BME280;49845;47.130;142.766;2023-09-08T03:56:49;100362.78;;;23.78;61.44
63700;BME280;49845;47.130;142.766;2023-09-08T03:59:25;100351.78;;;23.69;62.30
63700;BME280;49845;47.130;142.766;2023-09-08T04:02:00;100363.38;;;23.68;61.14
63700;BME280;49845;47.130;142.766;2023-09-08T04:04:34;100358.72;;;23.59;60.54
63700;BME280;49845;47.130;142.766;2023-09-08T04:07:07;100355.69;;;23.51;60.49
63700;BME280;49845;47.130;142.766;2023-09-08T04:09:39;100348.88;;;23.47;61.43
63700;BME280;49845;47.130;142.766;2023-09-08T04:12:12;100358.72;;;23.46;61.10
63700;BME280;49845;47.130;142.766;2023-09-08T04:14:46;100358.06;;;23.43;61.22
63700;BME280;49845;47.130;142.766;2023-09-08T04:17:18;100342.03;;;23.43;61.81
63700;BME280;49845;47.130;142.766;2023-09-08T04:19:53;100342.03;;;23.43;61.24
63700;BME280;49845;47.130;142.766;2023-09-08T04:22:26;100341.84;;;23.46;60.64
63700;BME280;49845;47.130;142.766;2023-09-08T04:24:59;100336.72;;;23.43;60.67
63700;BME280;49845;47.130;142.766;2023-09-08T04:27:32;100331.59;;;23.40;60.66
63700;BME280;49845;47.130;142.766;2023-09-08T04:30:09;100330.75;;;23.39;60.45
63700;BME280;49845;47.130;142.766;2023-09-08T04:32:43;100296.41;;;23.22;60.10
63700;BME280;49845;47.130;142.766;2023-09-08T04:35:17;100324.97;;;23.33;59.43
63700;BME280;49845;47.130;142.766;2023-09-08T04:37:49;100327.31;;;23.24;59.72
63700;BME280;49845;47.130;142.766;2023-09-08T04:40:23;100233.00;;;22.74;60.70
63700;BME280;49845;47.130;142.766;2023-09-08T04:42:56;100322.63;;;23.15;60.38
63700;BME280;49845;47.130;142.766;2023-09-08T04:45:31;100320.47;;;23.20;61.55
63700;BME280;49845;47.130;142.766;2023-09-08T04:48:04;100276.44;;;23.02;60.06
63700;BME280;49845;47.130;142.766;2023-09-08T04:50:37;100317.94;;;23.19;59.79
63700;BME280;49845;47.130;142.766;2023-09-08T04:53:10;100313.84;;;23.13;59.59
63700;BME280;49845;47.130;142.766;2023-09-08T04:55:44;100319.94;;;23.15;60.24
63700;BME280;49845;47.130;142.766;2023-09-08T04:58:19;100311.94;;;23.15;60.23
63700;BME280;49845;47.130;142.766;2023-09-08T05:00:53;100314.91;;;23.11;59.52
63700;BME280;49845;47.130;142.766;2023-09-08T05:03:27;100309.34;;;23.01;58.92
63700;BME280;49845;47.130;142.766;2023-09-08T05:06:00;100322.31;;;22.93;59.08
63700;BME280;49845;47.130;142.766;2023-09-08T05:08:33;100319.31;;;22.85;58.68
63700;BME280;49845;47.130;142.766;2023-09-08T05:11:07;100328.66;;;22.77;58.69
63700;BME280;49845;47.130;142.766;2023-09-08T05:13:40;100331.19;;;22.66;58.15
63700;BME280;49845;47.130;142.766;2023-09-08T05:16:16;100319.88;;;22.63;57.97
63700;BME280;49845;47.130;142.766;2023-09-08T05:18:56;100312.94;;;22.60;57.26
63700;BME280;49845;47.130;142.766;2023-09-08T05:21:30;100314.00;;;22.57;57.74
63700;BME280;49845;47.130;142.766;2023-09-08T05:24:04;100316.00;;;22.54;57.27
63700;BME280;49845;47.130;142.766;2023-09-08T05:26:38;100316.22;;;22.51;57.62
63700;BME280;49845;47.130;142.766;2023-09-08T05:29:12;100307.28;;;22.52;57.37
63700;BME280;49845;47.130;142.766;2023-09-08T05:31:46;100304.72;;;22.50;57.61
63700;BME280;49845;47.130;142.766;2023-09-08T05:34:18;100311.28;;;22.45;57.60
63700;BME280;49845;47.130;142.766;2023-09-08T05:36:52;100302.94;;;22.36;57.13
63700;BME280;49845;47.130;142.766;2023-09-08T05:39:24;100303.13;;;22.33;58.21
63700;BME280;49845;47.130;142.766;2023-09-08T05:41:57;100294.22;;;22.34;58.23
63700;BME280;49845;47.130;142.766;2023-09-08T05:44:33;100300.59;;;22.32;58.90
63700;BME280;49845;47.130;142.766;2023-09-08T05:47:08;100294.38;;;22.31;59.08
63700;BME280;49845;47.130;142.766;2023-09-08T05:49:42;100299.91;;;22.28;59.06
63700;BME280;49845;47.130;142.766;2023-09-08T05:52:18;100293.28;;;22.21;59.86
63700;BME280;49845;47.130;142.766;2023-09-08T05:54:53;100282.81;;;22.18;59.50
63700;BME280;49845;47.130;142.766;2023-09-08T05:57:31;100286.81;;;22.11;60.50
63700;BME280;49845;47.130;142.766;2023-09-08T06:00:08;100290.63;;;22.07;60.92
63700;BME280;49845;47.130;142.766;2023-09-08T06:02:45;100288.06;;;22.05;61.33
63700;BME280;49845;47.130;142.766;2023-09-08T06:05:18;100292.81;;;22.14;61.40
63700;BME280;49845;47.130;142.766;2023-09-08T06:07:50;100292.88;;;22.13;61.34
63700;BME280;49845;47.130;142.766;2023-09-08T06:10:34;100283.22;;;22.12;61.72
63700;BME280;49845;47.130;142.766;2023-09-08T06:13:08;100275.59;;;22.06;60.87
63700;BME280;49845;47.130;142.766;2023-09-08T06:15:41;100278.47;;;22.03;60.88
63700;BME280;49845;47.130;142.766;2023-09-08T06:18:15;100271.63;;;21.98;60.61
63700;BME280;49845;47.130;142.766;2023-09-08T06:20:47;100279.03;;;21.93;60.68
63700;BME280;49845;47.130;142.766;2023-09-08T06:23:21;100271.25;;;21.90;61.51
63700;BME280;49845;47.130;142.766;2023-09-08T06:25:57;100281.91;;;21.90;61.37
63700;BME280;49845;47.130;142.766;2023-09-08T06:28:30;100294.25;;;21.91;61.66
63700;BME280;49845;47.130;142.766;2023-09-08T06:31:04;100292.34;;;21.93;61.29
63700;BME280;49845;47.130;142.766;2023-09-08T06:33:39;100294.16;;;21.93;61.15
63700;BME280;49845;47.130;142.766;2023-09-08T06:36:11;100294.16;;;21.93;61.68
63700;BME280;49845;47.130;142.766;2023-09-08T06:38:43;100291.59;;;21.91;61.43
63700;BME280;49845;47.130;142.766;2023-09-08T06:41:16;100284.66;;;21.89;61.00
63700;BME280;49845;47.130;142.766;2023-09-08T06:43:49;100279.44;;;21.87;61.33
63700;BME280;49845;47.130;142.766;2023-09-08T06:46:21;100277.72;;;21.86;61.36
63700;BME280;49845;47.130;142.766;2023-09-08T06:48:55;100272.72;;;21.82;61.95
63700;BME280;49845;47.130;142.766;2023-09-08T06:51:29;100276.22;;;21.82;61.69
63700;BME280;49845;47.130;142.766;2023-09-08T06:54:03;100265.59;;;21.82;61.51
63700;BME280;49845;47.130;142.766;2023-09-08T06:56:37;100258.38;;;21.84;60.80
63700;BME280;49845;47.130;142.766;2023-09-08T06:59:10;100263.69;;;21.84;61.65
63700;BME280;49845;47.130;142.766;2023-09-08T07:01:43;100252.38;;;21.81;61.31
63700;BME280;49845;47.130;142.766;2023-09-08T07:04:18;100259.72;;;21.77;61.30
63700;BME280;49845;47.130;142.766;2023-09-08T07:06:54;100265.97;;;21.76;61.38
63700;BME280;49845;47.130;142.766;2023-09-08T07:09:26;100266.91;;;21.75;61.71
63700;BME280;49845;47.130;142.766;2023-09-08T07:11:58;100277.84;;;21.70;61.58
63700;BME280;49845;47.130;142.766;2023-09-08T07:14:32;100277.84;;;21.70;62.02
63700;BME280;49845;47.130;142.766;2023-09-08T07:17:05;100276.31;;;21.66;62.20
63700;BME280;49845;47.130;142.766;2023-09-08T07:19:40;100272.91;;;21.64;61.71
63700;BME280;49845;47.130;142.766;2023-09-08T07:22:14;100260.75;;;21.60;61.82
63700;BME280;49845;47.130;142.766;2023-09-08T07:24:46;100258.38;;;21.56;61.85
63700;BME280;49845;47.130;142.766;2023-09-08T07:27:19;100264.94;;;21.50;62.41
63700;BME280;49845;47.130;142.766;2023-09-08T07:29:50;100260.66;;;21.47;62.59
63700;BME280;49845;47.130;142.766;2023-09-08T07:32:25;100257.63;;;21.39;62.75
63700;BME280;49845;47.130;142.766;2023-09-08T07:34:59;100252.44;;;21.36;62.85
63700;BME280;49845;47.130;142.766;2023-09-08T07:37:32;100253.16;;;21.40;62.94
63700;BME280;49845;47.130;142.766;2023-09-08T07:40:06;100249.78;;;21.36;62.76
63700;BME280;49845;47.130;142.766;2023-09-08T07:42:40;100257.13;;;21.32;63.26
63700;BME280;49845;47.130;142.766;2023-09-08T07:45:14;100242.56;;;21.24;63.32
63700;BME280;49845;47.130;142.766;2023-09-08T07:47:47;100255.28;;;21.19;63.58
63700;BME280;49845;47.130;142.766;2023-09-08T07:50:23;100254.63;;;21.15;63.38
63700;BME280;49845;47.130;142.766;2023-09-08T07:52:57;100259.25;;;21.11;63.24
63700;BME280;49845;47.130;142.766;2023-09-08T07:55:31;100257.75;;;21.07;63.94
63700;BME280;49845;47.130;142.766;2023-09-08T07:58:04;100256.22;;;21.03;64.48
63700;BME280;49845;47.130;142.766;2023-09-08T08:00:36;100252.97;;;20.98;64.53
63700;BME280;49845;47.130;142.766;2023-09-08T08:03:07;100258.66;;;20.92;64.57
63700;BME280;49845;47.130;142.766;2023-09-08T08:05:41;100255.59;;;20.84;64.50
63700;BME280;49845;47.130;142.766;2023-09-08T08:08:13;100263.16;;;20.76;64.63
63700;BME280;49845;47.130;142.766;2023-09-08T08:10:46;100255.56;;;20.70;64.73
63700;BME280;49845;47.130;142.766;2023-09-08T08:13:18;100251.38;;;20.65;65.66
63700;BME280;49845;47.130;142.766;2023-09-08T08:15:52;100174.56;;;20.16;65.79
63700;BME280;49845;47.130;142.766;2023-09-08T08:18:25;100242.38;;;20.52;66.38
63700;BME280;49845;47.130;142.766;2023-09-08T08:21:00;100232.22;;;20.44;66.59
63700;BME280;49845;47.130;142.766;2023-09-08T08:23:33;100239.75;;;20.36;66.75
63700;BME280;49845;47.130;142.766;2023-09-08T08:26:08;100236.63;;;20.30;67.10
63700;BME280;49845;47.130;142.766;2023-09-08T08:28:39;100232.59;;;20.22;67.25
63700;BME280;49845;47.130;142.766;2023-09-08T08:31:13;100238.41;;;20.13;67.46
63700;BME280;49845;47.130;142.766;2023-09-08T08:33:47;100237.16;;;20.04;67.63
63700;BME280;49845;47.130;142.766;2023-09-08T08:36:21;100233.97;;;19.98;67.85
63700;BME280;49845;47.130;142.766;2023-09-08T08:38:53;100231.03;;;19.87;68.50
63700;BME280;49845;47.130;142.766;2023-09-08T08:41:26;100231.56;;;19.77;68.89
63700;BME280;49845;47.130;142.766;2023-09-08T08:43:59;100225.06;;;19.67;68.98
63700;BME280;49845;47.130;142.766;2023-09-08T08:46:33;100213.38;;;19.54;69.15
63700;BME280;49845;47.130;142.766;2023-09-08T08:49:07;100225.72;;;19.55;69.19
63700;BME280;49845;47.130;142.766;2023-09-08T08:51:44;100221.06;;;19.43;69.52
63700;BME280;49845;47.130;142.766;2023-09-08T08:54:17;100224.81;;;19.38;69.86
63700;BME280;49845;47.130;142.766;2023-09-08T08:56:50;100223.59;;;19.28;70.46
63700;BME280;49845;47.130;142.766;2023-09-08T08:59:23;100220.50;;;19.20;71.05
63700;BME280;49845;47.130;142.766;2023-09-08T09:01:56;100220.13;;;19.10;71.02
63700;BME280;49845;47.130;142.766;2023-09-08T09:04:32;100227.28;;;19.08;71.44
63700;BME280;49845;47.130;142.766;2023-09-08T09:07:06;100225.03;;;19.01;71.54
63700;BME280;49845;47.130;142.766;2023-09-08T09:09:40;100228.47;;;19.03;71.44
63700;BME280;49845;47.130;142.766;2023-09-08T09:12:13;100219.13;;;18.95;71.75
63700;BME280;49845;47.130;142.766;2023-09-08T09:14:51;100215.84;;;18.73;71.83
63700;BME280;49845;47.130;142.766;2023-09-08T09:17:28;100237.81;;;18.92;72.12
63700;BME280;49845;47.130;142.766;2023-09-08T09:20:13;100230.97;;;18.88;72.37
63700;BME280;49845;47.130;142.766;2023-09-08T09:22:50;100226.00;;;18.82;72.81
63700;BME280;49845;47.130;142.766;2023-09-08T09:25:28;100218.72;;;18.68;73.18
63700;BME280;49845;47.130;142.766;2023-09-08T09:28:03;100226.44;;;18.73;72.97
63700;BME280;49845;47.130;142.766;2023-09-08T09:30:48;100223.94;;;18.70;73.73
63700;BME280;49845;47.130;142.766;2023-09-08T09:33:26;100218.16;;;18.62;73.53
63700;BME280;49845;47.130;142.766;2023-09-08T09:36:30;100234.75;;;18.65;73.50
63700;BME280;49845;47.130;142.766;2023-09-08T09:39:12;100231.25;;;18.65;73.82
63700;BME280;49845;47.130;142.766;2023-09-08T09:41:43;100244.63;;;18.62;73.49
63700;BME280;49845;47.130;142.766;2023-09-08T09:44:14;100194.66;;;18.38;73.92
63700;BME280;49845;47.130;142.766;2023-09-08T09:47:06;100229.22;;;18.52;73.60
63700;BME280;49845;47.130;142.766;2023-09-08T09:49:44;100218.63;;;18.52;73.83
63700;BME280;49845;47.130;142.766;2023-09-08T09:52:21;100206.25;;;18.36;74.08
63700;BME280;49845;47.130;142.766;2023-09-08T09:54:54;100212.16;;;18.41;74.52
63700;BME280;49845;47.130;142.766;2023-09-08T09:57:28;100158.84;;;18.14;74.18
63700;BME280;49845;47.130;142.766;2023-09-08T09:59:59;100193.25;;;18.31;74.34
63700;BME280;49845;47.130;142.766;2023-09-08T10:02:36;100156.19;;;18.14;74.24
63700;BME280;49845;47.130;142.766;2023-09-08T10:05:11;100196.84;;;18.30;73.85
63700;BME280;49845;47.130;142.766;2023-09-08T10:07:50;100201.19;;;18.31;73.44
63700;BME280;49845;47.130;142.766;2023-09-08T10:10:37;100199.47;;;18.30;72.97
63700;BME280;49845;47.130;142.766;2023-09-08T10:13:18;100184.22;;;18.18;72.78
63700;BME280;49845;47.130;142.766;2023-09-08T10:16:25;100206.78;;;18.25;72.91
63700;BME280;49845;47.130;142.766;2023-09-08T10:19:04;100207.00;;;18.20;73.07
63700;BME280;49845;47.130;142.766;2023-09-08T10:22:14;100206.16;;;18.20;73.42
63700;BME280;49845;47.130;142.766;2023-09-08T10:25:27;100202.88;;;18.15;73.77
63700;BME280;49845;47.130;142.766;2023-09-08T10:28:05;100203.63;;;18.17;73.83
63700;BME280;49845;47.130;142.766;2023-09-08T10:30:37;100199.06;;;18.20;73.85
63700;BME280;49845;47.130;142.766;2023-09-08T10:33:10;100192.31;;;18.15;75.01
63700;BME280;49845;47.130;142.766;2023-09-08T10:35:43;100188.16;;;18.09;76.37
63700;BME280;49845;47.130;142.766;2023-09-08T10:38:25;100187.28;;;18.08;78.40
63700;BME280;49845;47.130;142.766;2023-09-08T10:41:26;100191.00;;;18.04;79.97
63700;BME280;49845;47.130;142.766;2023-09-08T10:44:08;100180.75;;;17.98;80.74
63700;BME280;49845;47.130;142.766;2023-09-08T10:46:40;100183.53;;;17.95;80.86
63700;BME280;49845;47.130;142.766;2023-09-08T10:49:13;100124.22;;;17.45;80.95
63700;BME280;49845;47.130;142.766;2023-09-08T10:52:08;100174.59;;;17.79;80.92
63700;BME280;49845;47.130;142.766;2023-09-08T10:54:44;100138.75;;;17.54;80.73
63700;BME280;49845;47.130;142.766;2023-09-08T10:57:18;100173.03;;;17.75;80.33
63700;BME280;49845;47.130;142.766;2023-09-08T10:59:54;100187.00;;;17.77;80.51
63700;BME280;49845;47.130;142.766;2023-09-08T11:02:36;100183.88;;;17.68;81.05
63700;BME280;49845;47.130;142.766;2023-09-08T11:05:09;100177.31;;;17.58;82.00
63700;BME280;49845;47.130;142.766;2023-09-08T11:07:43;100167.03;;;17.52;82.55
63700;BME280;49845;47.130;142.766;2023-09-08T11:10:15;100162.97;;;17.45;83.42
63700;BME280;49845;47.130;142.766;2023-09-08T11:12:46;100159.69;;;17.40;84.14
63700;BME280;49845;47.130;142.766;2023-09-08T11:15:22;100154.47;;;17.38;84.66
63700;BME280;49845;47.130;142.766;2023-09-08T11:17:54;100151.88;;;17.37;85.31
63700;BME280;49845;47.130;142.766;2023-09-08T11:20:28;100150.34;;;17.33;85.95
63700;BME280;49845;47.130;142.766;2023-09-08T11:23:00;100147.06;;;17.28;86.34
63700;BME280;49845;47.130;142.766;2023-09-08T11:25:33;100147.69;;;17.33;86.80
63700;BME280;49845;47.130;142.766;2023-09-08T11:28:06;100100.56;;;17.04;87.35
63700;BME280;49845;47.130;142.766;2023-09-08T11:30:39;100114.09;;;17.17;87.97
63700;BME280;49845;47.130;142.766;2023-09-08T11:33:15;100057.69;;;16.80;88.86
63700;BME280;49845;47.130;142.766;2023-09-08T11:35:47;100138.34;;;17.25;89.66
63700;BME280;49845;47.130;142.766;2023-09-08T11:38:18;100133.97;;;17.24;90.32
63700;BME280;49845;47.130;142.766;2023-09-08T11:40:50;100134.75;;;17.27;91.18
63700;BME280;49845;47.130;142.766;2023-09-08T11:43:22;100127.63;;;17.29;92.25
63700;BME280;49845;47.130;142.766;2023-09-08T11:45:56;100131.06;;;17.31;93.00
63700;BME280;49845;47.130;142.766;2023-09-08T11:48:28;100089.66;;;17.12;93.92
63700;BME280;49845;47.130;142.766;2023-09-08T11:51:00;100116.78;;;17.35;94.43
63700;BME280;49845;47.130;142.766;2023-09-08T11:53:31;100121.94;;;17.38;94.93
63700;BME280;49845;47.130;142.766;2023-09-08T11:56:03;100114.66;;;17.43;95.54
63700;BME280;49845;47.130;142.766;2023-09-08T11:58:36;100126.91;;;17.44;96.22
63700;BME280;49845;47.130;142.766;2023-09-08T12:01:09;100110.91;;;17.47;96.54
63700;BME280;49845;47.130;142.766;2023-09-08T12:03:52;100100.94;;;17.35;97.06
63700;BME280;49845;47.130;142.766;2023-09-08T12:06:25;100116.06;;;17.50;97.83
63700;BME280;49845;47.130;142.766;2023-09-08T12:09:01;100109.22;;;17.46;98.45
63700;BME280;49845;47.130;142.766;2023-09-08T12:11:34;100109.22;;;17.46;99.06
63700;BME280;49845;47.130;142.766;2023-09-08T12:14:11;100066.41;;;17.20;100.00
63700;BME280;49845;47.130;142.766;2023-09-08T12:16:45;100107.19;;;17.51;100.00
63700;BME280;49845;47.130;142.766;2023-09-08T12:19:30;100107.34;;;17.48;100.00
63700;BME280;49845;47.130;142.766;2023-09-08T12:22:02;100099.91;;;17.56;100.00
63700;BME280;49845;47.130;142.766;2023-09-08T12:24:47;100102.34;;;17.61;100.00
63700;BME280;49845;47.130;142.766;2023-09-08T12:27:19;100110.31;;;17.59;100.00
63700;BME280;49845;47.130;142.766;2023-09-08T12:29:58;100112.91;;;17.61;100.00
63700;BME280;49845;47.130;142.766;2023-09-08T12:32:31;100106.63;;;17.63;100.00
63700;BME280;49845;47.130;142.766;2023-09-08T12:35:04;100116.88;;;17.69;100.00
63700;BME280;49845;47.130;142.766;2023-09-08T12:37:36;100122.03;;;17.73;100.00
63700;BME280;49845;47.130;142.766;2023-09-08T12:40:10;100130.97;;;17.70;100.00
63700;BME280;49845;47.130;142.766;2023-09-08T12:42:42;100118.88;;;17.64;100.00
63700;BME280;49845;47.130;142.766;2023-09-08T12:45:19;100128.59;;;17.64;100.00
63700;BME280;49845;47.130;142.766;2023-09-08T12:47:53;100129.59;;;17.61;100.00
63700;BME280;49845;47.130;142.766;2023-09-08T12:50:35;100067.94;;;17.24;100.00
63700;BME280;49845;47.130;142.766;2023-09-08T12:53:12;100121.25;;;17.52;100.00
63700;BME280;49845;47.130;142.766;2023-09-08T12:55:50;100110.56;;;17.36;100.00
63700;BME280;49845;47.130;142.766;2023-09-08T12:58:23;100137.22;;;17.50;100.00
63700;BME280;49845;47.130;142.766;2023-09-08T13:00:58;100139.97;;;17.47;100.00
63700;BME280;49845;47.130;142.766;2023-09-08T13:07:48;100127.19;;;17.19;100.00
63700;BME280;49845;47.130;142.766;2023-09-08T13:11:30;100092.63;;;16.86;100.00
63700;BME280;49845;47.130;142.766;2023-09-08T13:14:24;100120.31;;;16.96;100.00
63700;BME280;49845;47.130;142.766;2023-09-08T13:17:24;100124.00;;;16.92;100.00
63700;BME280;49845;47.130;142.766;2023-09-08T13:20:13;100121.66;;;16.86;100.00